Terminal Aerodrome Forecast
Issued by NWS

Home | Current Version | Previous Version | Text Only | Print | Product List | Glossary On
Versions: 1 2 3 4 5 6 7 8 9 10 11 12 13 14 15
000
FTUS41 KBGM 181738 AAA
TAFRME
TAF AMD
KRME 181738Z 1818/1918 23006KT P6SM SCT050
      TEMPO 1820/1824 -SHRA OVC030
     FM190100 27005KT P6SM SCT100
      TEMPO 1908/1912 5SM BR BKN015
     FM191500 27008KT P6SM BKN050=

USA.gov is the U.S. government's official web portal to all federal, state and local government web resources and services.